sensor_id;sensor_type;location;lat;lon;timestamp;P1;durP1;ratioP1;P2;durP2;ratioP2
72319;SDS011;60269;52.502;16.732;2023-03-23T00:02:31;10.90;;;4.03;;
72319;SDS011;60269;52.502;16.732;2023-03-23T00:06:06;13.10;;;3.60;;
72319;SDS011;60269;52.502;16.732;2023-03-23T00:09:38;10.73;;;3.78;;
72319;SDS011;60269;52.502;16.732;2023-03-23T00:13:11;11.20;;;3.05;;
72319;SDS011;60269;52.502;16.732;2023-03-23T00:16:43;8.57;;;3.20;;
72319;SDS011;60269;52.502;16.732;2023-03-23T00:20:15;9.15;;;2.97;;
72319;SDS011;60269;52.502;16.732;2023-03-23T00:23:47;9.65;;;3.33;;
72319;SDS011;60269;52.502;16.732;2023-03-23T00:27:18;11.60;;;3.30;;
72319;SDS011;60269;52.502;16.732;2023-03-23T00:30:59;11.37;;;3.63;;
72319;SDS011;60269;52.502;16.732;2023-03-23T00:34:36;10.38;;;3.53;;
72319;SDS011;60269;52.502;16.732;2023-03-23T00:38:09;12.55;;;4.57;;
72319;SDS011;60269;52.502;16.732;2023-03-23T00:41:40;11.27;;;4.03;;
72319;SDS011;60269;52.502;16.732;2023-03-23T00:45:11;9.98;;;3.63;;
72319;SDS011;60269;52.502;16.732;2023-03-23T00:48:45;12.52;;;4.40;;
72319;SDS011;60269;52.502;16.732;2023-03-23T00:52:15;13.20;;;4.60;;
72319;SDS011;60269;52.502;16.732;2023-03-23T00:55:47;13.25;;;5.25;;
72319;SDS011;60269;52.502;16.732;2023-03-23T00:59:19;16.15;;;5.63;;
72319;SDS011;60269;52.502;16.732;2023-03-23T01:02:52;11.93;;;4.60;;
72319;SDS011;60269;52.502;16.732;2023-03-23T01:06:23;14.88;;;5.05;;
72319;SDS011;60269;52.502;16.732;2023-03-23T01:09:54;14.02;;;4.45;;
72319;SDS011;60269;52.502;16.732;2023-03-23T01:13:28;14.00;;;4.93;;
72319;SDS011;60269;52.502;16.732;2023-03-23T01:16:58;13.90;;;4.78;;
72319;SDS011;60269;52.502;16.732;2023-03-23T01:20:30;14.30;;;6.00;;
72319;SDS011;60269;52.502;16.732;2023-03-23T01:24:01;14.57;;;5.77;;
72319;SDS011;60269;52.502;16.732;2023-03-23T01:27:33;14.80;;;5.72;;
72319;SDS011;60269;52.502;16.732;2023-03-23T01:31:05;14.68;;;5.82;;
72319;SDS011;60269;52.502;16.732;2023-03-23T01:34:42;18.83;;;5.93;;
72319;SDS011;60269;52.502;16.732;2023-03-23T01:38:14;15.73;;;6.32;;
72319;SDS011;60269;52.502;16.732;2023-03-23T01:41:44;15.75;;;6.82;;
72319;SDS011;60269;52.502;16.732;2023-03-23T01:48:49;21.60;;;6.68;;
72319;SDS011;60269;52.502;16.732;2023-03-23T01:52:24;20.70;;;8.48;;
72319;SDS011;60269;52.502;16.732;2023-03-23T01:55:59;21.77;;;7.53;;
72319;SDS011;60269;52.502;16.732;2023-03-23T01:59:32;21.00;;;8.97;;
72319;SDS011;60269;52.502;16.732;2023-03-23T02:03:05;18.40;;;7.55;;
72319;SDS011;60269;52.502;16.732;2023-03-23T02:06:36;18.83;;;7.90;;
72319;SDS011;60269;52.502;16.732;2023-03-23T02:10:07;24.33;;;8.80;;
72319;SDS011;60269;52.502;16.732;2023-03-23T02:13:39;20.15;;;8.10;;
72319;SDS011;60269;52.502;16.732;2023-03-23T02:17:58;18.52;;;7.25;;
72319;SDS011;60269;52.502;16.732;2023-03-23T02:29:05;18.45;;;6.55;;
72319;SDS011;60269;52.502;16.732;2023-03-23T02:37:03;16.93;;;6.30;;
72319;SDS011;60269;52.502;16.732;2023-03-23T02:40:44;17.58;;;6.50;;
72319;SDS011;60269;52.502;16.732;2023-03-23T02:44:17;18.50;;;6.18;;
72319;SDS011;60269;52.502;16.732;2023-03-23T02:47:49;15.65;;;5.35;;
72319;SDS011;60269;52.502;16.732;2023-03-23T02:51:23;16.07;;;5.70;;
72319;SDS011;60269;52.502;16.732;2023-03-23T02:54:56;15.43;;;4.72;;
72319;SDS011;60269;52.502;16.732;2023-03-23T02:58:29;17.63;;;5.30;;
72319;SDS011;60269;52.502;16.732;2023-03-23T03:13:08;13.88;;;4.90;;
72319;SDS011;60269;52.502;16.732;2023-03-23T03:16:54;13.10;;;5.00;;
72319;SDS011;60269;52.502;16.732;2023-03-23T03:20:26;11.25;;;4.32;;
72319;SDS011;60269;52.502;16.732;2023-03-23T03:24:00;11.80;;;4.72;;
72319;SDS011;60269;52.502;16.732;2023-03-23T03:27:33;14.70;;;4.45;;
72319;SDS011;60269;52.502;16.732;2023-03-23T03:31:05;15.00;;;4.83;;
72319;SDS011;60269;52.502;16.732;2023-03-23T03:34:37;12.43;;;4.00;;
72319;SDS011;60269;52.502;16.732;2023-03-23T03:38:10;16.20;;;3.95;;
72319;SDS011;60269;52.502;16.732;2023-03-23T03:41:44;9.47;;;3.53;;
72319;SDS011;60269;52.502;16.732;2023-03-23T03:45:17;9.75;;;3.63;;
72319;SDS011;60269;52.502;16.732;2023-03-23T03:48:51;13.73;;;4.47;;
72319;SDS011;60269;52.502;16.732;2023-03-23T03:52:23;13.27;;;4.75;;
72319;SDS011;60269;52.502;16.732;2023-03-23T03:55:54;12.23;;;3.70;;
72319;SDS011;60269;52.502;16.732;2023-03-23T03:59:30;13.75;;;4.03;;
72319;SDS011;60269;52.502;16.732;2023-03-23T04:03:01;10.83;;;3.70;;
72319;SDS011;60269;52.502;16.732;2023-03-23T04:06:32;12.80;;;4.30;;
72319;SDS011;60269;52.502;16.732;2023-03-23T04:10:06;10.68;;;3.08;;
72319;SDS011;60269;52.502;16.732;2023-03-23T04:13:40;12.90;;;3.83;;
72319;SDS011;60269;52.502;16.732;2023-03-23T04:17:13;10.38;;;3.38;;
72319;SDS011;60269;52.502;16.732;2023-03-23T04:20:45;10.68;;;4.00;;
72319;SDS011;60269;52.502;16.732;2023-03-23T04:24:19;12.43;;;3.80;;
72319;SDS011;60269;52.502;16.732;2023-03-23T04:27:52;10.97;;;3.53;;
72319;SDS011;60269;52.502;16.732;2023-03-23T04:31:23;8.90;;;2.80;;
72319;SDS011;60269;52.502;16.732;2023-03-23T04:34:58;10.25;;;2.80;;
72319;SDS011;60269;52.502;16.732;2023-03-23T04:38:32;11.97;;;3.77;;
72319;SDS011;60269;52.502;16.732;2023-03-23T04:42:05;7.82;;;2.63;;
72319;SDS011;60269;52.502;16.732;2023-03-23T04:45:36;7.03;;;2.33;;
72319;SDS011;60269;52.502;16.732;2023-03-23T04:49:08;8.17;;;2.70;;
72319;SDS011;60269;52.502;16.732;2023-03-23T04:52:39;9.05;;;2.80;;
72319;SDS011;60269;52.502;16.732;2023-03-23T04:56:15;7.40;;;1.98;;
72319;SDS011;60269;52.502;16.732;2023-03-23T04:59:49;9.20;;;2.50;;
72319;SDS011;60269;52.502;16.732;2023-03-23T05:03:20;7.60;;;2.60;;
72319;SDS011;60269;52.502;16.732;2023-03-23T05:06:51;9.30;;;2.72;;
72319;SDS011;60269;52.502;16.732;2023-03-23T05:10:23;10.07;;;2.25;;
72319;SDS011;60269;52.502;16.732;2023-03-23T05:13:54;7.10;;;1.70;;
72319;SDS011;60269;52.502;16.732;2023-03-23T05:17:26;8.38;;;2.30;;
72319;SDS011;60269;52.502;16.732;2023-03-23T05:21:01;5.25;;;1.67;;
72319;SDS011;60269;52.502;16.732;2023-03-23T05:24:33;5.87;;;1.30;;
72319;SDS011;60269;52.502;16.732;2023-03-23T05:28:04;5.50;;;1.30;;
72319;SDS011;60269;52.502;16.732;2023-03-23T05:31:35;6.65;;;1.73;;
72319;SDS011;60269;52.502;16.732;2023-03-23T05:35:08;5.70;;;1.37;;
72319;SDS011;60269;52.502;16.732;2023-03-23T05:38:39;5.47;;;1.30;;
72319;SDS011;60269;52.502;16.732;2023-03-23T05:42:15;6.07;;;1.45;;
72319;SDS011;60269;52.502;16.732;2023-03-23T05:45:47;5.97;;;1.38;;
72319;SDS011;60269;52.502;16.732;2023-03-23T05:49:18;4.53;;;1.10;;
72319;SDS011;60269;52.502;16.732;2023-03-23T05:52:49;4.88;;;1.40;;
72319;SDS011;60269;52.502;16.732;2023-03-23T05:56:21;6.15;;;1.20;;
72319;SDS011;60269;52.502;16.732;2023-03-23T05:59:51;4.83;;;0.80;;
72319;SDS011;60269;52.502;16.732;2023-03-23T06:03:23;5.05;;;1.05;;
72319;SDS011;60269;52.502;16.732;2023-03-23T06:06:54;5.00;;;1.20;;
72319;SDS011;60269;52.502;16.732;2023-03-23T06:10:26;5.40;;;1.00;;
72319;SDS011;60269;52.502;16.732;2023-03-23T06:13:57;3.63;;;0.70;;
72319;SDS011;60269;52.502;16.732;2023-03-23T06:17:29;5.13;;;1.00;;
72319;SDS011;60269;52.502;16.732;2023-03-23T06:21:00;8.10;;;1.47;;
72319;SDS011;60269;52.502;16.732;2023-03-23T06:24:31;5.22;;;1.20;;
72319;SDS011;60269;52.502;16.732;2023-03-23T06:28:03;5.38;;;1.13;;
72319;SDS011;60269;52.502;16.732;2023-03-23T06:31:35;6.88;;;1.08;;
72319;SDS011;60269;52.502;16.732;2023-03-23T06:35:06;5.13;;;1.30;;
72319;SDS011;60269;52.502;16.732;2023-03-23T06:38:42;6.18;;;1.10;;
72319;SDS011;60269;52.502;16.732;2023-03-23T06:42:13;8.07;;;1.80;;
72319;SDS011;60269;52.502;16.732;2023-03-23T06:45:44;5.43;;;1.30;;
72319;SDS011;60269;52.502;16.732;2023-03-23T06:49:15;5.38;;;1.05;;
72319;SDS011;60269;52.502;16.732;2023-03-23T06:52:46;6.30;;;1.55;;
72319;SDS011;60269;52.502;16.732;2023-03-23T06:56:18;6.57;;;1.47;;
72319;SDS011;60269;52.502;16.732;2023-03-23T06:59:49;6.87;;;1.73;;
72319;SDS011;60269;52.502;16.732;2023-03-23T07:03:20;5.80;;;1.17;;
72319;SDS011;60269;52.502;16.732;2023-03-23T07:06:51;6.30;;;1.30;;
72319;SDS011;60269;52.502;16.732;2023-03-23T07:10:22;6.35;;;1.27;;
72319;SDS011;60269;52.502;16.732;2023-03-23T07:13:53;5.63;;;1.67;;
72319;SDS011;60269;52.502;16.732;2023-03-23T07:17:25;5.55;;;1.27;;
72319;SDS011;60269;52.502;16.732;2023-03-23T07:20:55;6.93;;;1.90;;
72319;SDS011;60269;52.502;16.732;2023-03-23T07:24:27;7.68;;;1.45;;
72319;SDS011;60269;52.502;16.732;2023-03-23T07:27:58;9.17;;;2.40;;
72319;SDS011;60269;52.502;16.732;2023-03-23T07:31:31;8.20;;;2.30;;
72319;SDS011;60269;52.502;16.732;2023-03-23T07:35:01;7.37;;;1.13;;
72319;SDS011;60269;52.502;16.732;2023-03-23T07:38:32;6.70;;;1.40;;
72319;SDS011;60269;52.502;16.732;2023-03-23T07:42:04;5.32;;;1.20;;
72319;SDS011;60269;52.502;16.732;2023-03-23T07:45:37;4.80;;;1.20;;
72319;SDS011;60269;52.502;16.732;2023-03-23T07:49:08;4.72;;;1.05;;
72319;SDS011;60269;52.502;16.732;2023-03-23T07:52:39;3.25;;;0.70;;
72319;SDS011;60269;52.502;16.732;2023-03-23T07:56:11;5.75;;;1.42;;
72319;SDS011;60269;52.502;16.732;2023-03-23T07:59:44;3.83;;;0.90;;
72319;SDS011;60269;52.502;16.732;2023-03-23T08:03:17;4.78;;;1.00;;
72319;SDS011;60269;52.502;16.732;2023-03-23T08:06:48;6.47;;;1.27;;
72319;SDS011;60269;52.502;16.732;2023-03-23T08:10:20;8.40;;;1.40;;
72319;SDS011;60269;52.502;16.732;2023-03-23T08:13:52;6.77;;;1.20;;
72319;SDS011;60269;52.502;16.732;2023-03-23T08:17:23;10.75;;;1.52;;
72319;SDS011;60269;52.502;16.732;2023-03-23T08:20:54;9.27;;;1.47;;
72319;SDS011;60269;52.502;16.732;2023-03-23T08:24:25;7.28;;;1.30;;
72319;SDS011;60269;52.502;16.732;2023-03-23T08:27:57;5.15;;;1.00;;
72319;SDS011;60269;52.502;16.732;2023-03-23T08:31:29;4.45;;;1.20;;
72319;SDS011;60269;52.502;16.732;2023-03-23T08:35:02;5.43;;;0.93;;
72319;SDS011;60269;52.502;16.732;2023-03-23T08:38:34;5.53;;;1.30;;
72319;SDS011;60269;52.502;16.732;2023-03-23T08:42:06;7.80;;;1.60;;
72319;SDS011;60269;52.502;16.732;2023-03-23T08:45:37;5.43;;;1.20;;
72319;SDS011;60269;52.502;16.732;2023-03-23T08:49:08;6.07;;;1.10;;
72319;SDS011;60269;52.502;16.732;2023-03-23T08:52:39;10.03;;;1.43;;
72319;SDS011;60269;52.502;16.732;2023-03-23T08:56:11;6.63;;;1.05;;
72319;SDS011;60269;52.502;16.732;2023-03-23T08:59:45;7.50;;;1.25;;
72319;SDS011;60269;52.502;16.732;2023-03-23T09:03:16;3.95;;;0.90;;
72319;SDS011;60269;52.502;16.732;2023-03-23T09:06:48;4.43;;;0.90;;
72319;SDS011;60269;52.502;16.732;2023-03-23T09:10:19;6.10;;;0.90;;
72319;SDS011;60269;52.502;16.732;2023-03-23T09:13:51;4.90;;;0.63;;
72319;SDS011;60269;52.502;16.732;2023-03-23T09:17:22;2.67;;;0.57;;
72319;SDS011;60269;52.502;16.732;2023-03-23T09:20:53;5.05;;;0.80;;
72319;SDS011;60269;52.502;16.732;2023-03-23T09:24:25;4.25;;;0.80;;
72319;SDS011;60269;52.502;16.732;2023-03-23T09:27:57;5.33;;;1.00;;
72319;SDS011;60269;52.502;16.732;2023-03-23T09:31:29;4.18;;;0.73;;
72319;SDS011;60269;52.502;16.732;2023-03-23T09:35:03;4.55;;;0.88;;
72319;SDS011;60269;52.502;16.732;2023-03-23T09:38:37;5.83;;;0.87;;
72319;SDS011;60269;52.502;16.732;2023-03-23T09:49:59;4.38;;;0.80;;
72319;SDS011;60269;52.502;16.732;2023-03-23T09:53:39;3.43;;;0.87;;
72319;SDS011;60269;52.502;16.732;2023-03-23T09:57:25;3.07;;;0.60;;
72319;SDS011;60269;52.502;16.732;2023-03-23T10:05:14;2.75;;;0.70;;
72319;SDS011;60269;52.502;16.732;2023-03-23T10:09:05;4.20;;;0.80;;
72319;SDS011;60269;52.502;16.732;2023-03-23T10:12:40;2.90;;;0.60;;
72319;SDS011;60269;52.502;16.732;2023-03-23T10:16:17;7.40;;;1.30;;
72319;SDS011;60269;52.502;16.732;2023-03-23T10:24:09;3.80;;;0.77;;
72319;SDS011;60269;52.502;16.732;2023-03-23T10:27:33;3.95;;;0.80;;
72319;SDS011;60269;52.502;16.732;2023-03-23T10:31:14;4.57;;;0.73;;
72319;SDS011;60269;52.502;16.732;2023-03-23T10:34:52;6.83;;;0.70;;
72319;SDS011;60269;52.502;16.732;2023-03-23T10:38:36;1.65;;;0.40;;
72319;SDS011;60269;52.502;16.732;2023-03-23T10:42:10;2.75;;;0.50;;
72319;SDS011;60269;52.502;16.732;2023-03-23T10:45:41;3.77;;;0.70;;
72319;SDS011;60269;52.502;16.732;2023-03-23T10:49:19;3.88;;;0.90;;
72319;SDS011;60269;52.502;16.732;2023-03-23T10:52:53;4.07;;;0.70;;
72319;SDS011;60269;52.502;16.732;2023-03-23T10:56:29;3.80;;;0.70;;
72319;SDS011;60269;52.502;16.732;2023-03-23T11:03:47;3.05;;;0.60;;
72319;SDS011;60269;52.502;16.732;2023-03-23T11:07:20;5.60;;;0.70;;
72319;SDS011;60269;52.502;16.732;2023-03-23T11:10:58;4.53;;;0.80;;
72319;SDS011;60269;52.502;16.732;2023-03-23T11:14:40;4.60;;;0.70;;
72319;SDS011;60269;52.502;16.732;2023-03-23T11:19:00;3.40;;;0.63;;
72319;SDS011;60269;52.502;16.732;2023-03-23T11:22:31;4.27;;;0.60;;
72319;SDS011;60269;52.502;16.732;2023-03-23T11:29:47;3.15;;;0.50;;
72319;SDS011;60269;52.502;16.732;2023-03-23T11:33:22;3.22;;;0.60;;
72319;SDS011;60269;52.502;16.732;2023-03-23T11:36:58;4.33;;;0.60;;
72319;SDS011;60269;52.502;16.732;2023-03-23T11:40:43;4.15;;;0.60;;
72319;SDS011;60269;52.502;16.732;2023-03-23T11:44:19;6.13;;;0.70;;
72319;SDS011;60269;52.502;16.732;2023-03-23T11:51:29;2.75;;;0.68;;
72319;SDS011;60269;52.502;16.732;2023-03-23T11:55:23;3.78;;;0.75;;
72319;SDS011;60269;52.502;16.732;2023-03-23T11:58:58;4.80;;;0.75;;
72319;SDS011;60269;52.502;16.732;2023-03-23T12:06:43;3.80;;;0.85;;
72319;SDS011;60269;52.502;16.732;2023-03-23T12:37:08;2.72;;;0.65;;
72319;SDS011;60269;52.502;16.732;2023-03-23T12:44:14;3.10;;;0.77;;
72319;SDS011;60269;52.502;16.732;2023-03-23T12:47:57;2.97;;;0.65;;
72319;SDS011;60269;52.502;16.732;2023-03-23T12:51:36;4.57;;;0.70;;
72319;SDS011;60269;52.502;16.732;2023-03-23T12:55:15;4.27;;;0.80;;
72319;SDS011;60269;52.502;16.732;2023-03-23T12:59:02;3.85;;;0.90;;
72319;SDS011;60269;52.502;16.732;2023-03-23T13:06:43;5.13;;;0.70;;
72319;SDS011;60269;52.502;16.732;2023-03-23T13:21:51;5.57;;;1.10;;
72319;SDS011;60269;52.502;16.732;2023-03-23T13:29:20;5.10;;;1.08;;
72319;SDS011;60269;52.502;16.732;2023-03-23T13:33:02;3.80;;;1.05;;
72319;SDS011;60269;52.502;16.732;2023-03-23T13:40:42;3.63;;;1.00;;
72319;SDS011;60269;52.502;16.732;2023-03-23T13:44:16;5.22;;;0.80;;
72319;SDS011;60269;52.502;16.732;2023-03-23T13:47:49;4.73;;;1.10;;
72319;SDS011;60269;52.502;16.732;2023-03-23T13:51:58;4.10;;;1.03;;
72319;SDS011;60269;52.502;16.732;2023-03-23T13:55:41;5.43;;;1.10;;
72319;SDS011;60269;52.502;16.732;2023-03-23T13:59:15;3.70;;;0.70;;
72319;SDS011;60269;52.502;16.732;2023-03-23T14:06:40;5.07;;;1.08;;
72319;SDS011;60269;52.502;16.732;2023-03-23T14:10:14;6.30;;;1.38;;
72319;SDS011;60269;52.502;16.732;2023-03-23T14:13:57;3.92;;;0.90;;
72319;SDS011;60269;52.502;16.732;2023-03-23T14:17:30;4.17;;;0.90;;
72319;SDS011;60269;52.502;16.732;2023-03-23T14:21:06;4.50;;;1.17;;
72319;SDS011;60269;52.502;16.732;2023-03-23T14:24:44;4.45;;;0.90;;
72319;SDS011;60269;52.502;16.732;2023-03-23T14:28:19;2.90;;;0.63;;
72319;SDS011;60269;52.502;16.732;2023-03-23T14:31:54;5.88;;;1.20;;
72319;SDS011;60269;52.502;16.732;2023-03-23T14:35:30;2.45;;;0.63;;
72319;SDS011;60269;52.502;16.732;2023-03-23T14:42:46;3.83;;;0.73;;
72319;SDS011;60269;52.502;16.732;2023-03-23T14:46:18;3.38;;;0.80;;
72319;SDS011;60269;52.502;16.732;2023-03-23T14:49:53;5.03;;;0.85;;
72319;SDS011;60269;52.502;16.732;2023-03-23T14:53:39;6.13;;;1.40;;
72319;SDS011;60269;52.502;16.732;2023-03-23T14:57:15;4.63;;;0.65;;
72319;SDS011;60269;52.502;16.732;2023-03-23T15:00:52;4.53;;;1.10;;
72319;SDS011;60269;52.502;16.732;2023-03-23T15:04:29;4.65;;;0.98;;
72319;SDS011;60269;52.502;16.732;2023-03-23T15:08:02;3.23;;;0.80;;
72319;SDS011;60269;52.502;16.732;2023-03-23T15:11:36;4.43;;;1.00;;
72319;SDS011;60269;52.502;16.732;2023-03-23T15:15:20;4.95;;;1.10;;
72319;SDS011;60269;52.502;16.732;2023-03-23T15:22:30;4.50;;;1.10;;
72319;SDS011;60269;52.502;16.732;2023-03-23T15:26:03;4.85;;;1.27;;
72319;SDS011;60269;52.502;16.732;2023-03-23T15:29:50;6.17;;;1.30;;
72319;SDS011;60269;52.502;16.732;2023-03-23T15:33:22;5.72;;;1.33;;
72319;SDS011;60269;52.502;16.732;2023-03-23T15:36:58;5.15;;;1.10;;
72319;SDS011;60269;52.502;16.732;2023-03-23T15:40:35;4.88;;;1.20;;
72319;SDS011;60269;52.502;16.732;2023-03-23T15:44:10;5.33;;;1.37;;
72319;SDS011;60269;52.502;16.732;2023-03-23T15:47:44;5.60;;;1.48;;
72319;SDS011;60269;52.502;16.732;2023-03-23T15:51:17;5.30;;;1.30;;
72319;SDS011;60269;52.502;16.732;2023-03-23T15:54:50;7.10;;;1.90;;
72319;SDS011;60269;52.502;16.732;2023-03-23T15:58:21;5.93;;;1.17;;
72319;SDS011;60269;52.502;16.732;2023-03-23T16:01:53;5.85;;;1.30;;
72319;SDS011;60269;52.502;16.732;2023-03-23T16:05:26;4.85;;;1.23;;
72319;SDS011;60269;52.502;16.732;2023-03-23T16:08:58;7.10;;;1.47;;
72319;SDS011;60269;52.502;16.732;2023-03-23T16:12:31;5.93;;;1.53;;
72319;SDS011;60269;52.502;16.732;2023-03-23T16:16:03;4.90;;;1.40;;
72319;SDS011;60269;52.502;16.732;2023-03-23T16:19:36;5.80;;;1.33;;
72319;SDS011;60269;52.502;16.732;2023-03-23T16:23:09;4.60;;;1.17;;
72319;SDS011;60269;52.502;16.732;2023-03-23T16:26:41;5.40;;;1.50;;
72319;SDS011;60269;52.502;16.732;2023-03-23T16:30:14;4.35;;;1.20;;
72319;SDS011;60269;52.502;16.732;2023-03-23T16:33:50;4.80;;;1.30;;
72319;SDS011;60269;52.502;16.732;2023-03-23T16:37:22;5.07;;;1.40;;
72319;SDS011;60269;52.502;16.732;2023-03-23T16:40:54;5.15;;;1.48;;
72319;SDS011;60269;52.502;16.732;2023-03-23T16:44:27;5.13;;;1.50;;
72319;SDS011;60269;52.502;16.732;2023-03-23T16:47:58;4.35;;;1.40;;
72319;SDS011;60269;52.502;16.732;2023-03-23T16:51:32;5.10;;;1.30;;
72319;SDS011;60269;52.502;16.732;2023-03-23T16:55:05;7.25;;;1.77;;
72319;SDS011;60269;52.502;16.732;2023-03-23T16:58:37;6.85;;;1.88;;
72319;SDS011;60269;52.502;16.732;2023-03-23T17:02:10;7.93;;;2.00;;
72319;SDS011;60269;52.502;16.732;2023-03-23T17:05:43;6.47;;;2.15;;
72319;SDS011;60269;52.502;16.732;2023-03-23T17:09:16;12.30;;;2.97;;
72319;SDS011;60269;52.502;16.732;2023-03-23T17:12:48;8.93;;;2.55;;
72319;SDS011;60269;52.502;16.732;2023-03-23T17:16:21;9.67;;;2.50;;
72319;SDS011;60269;52.502;16.732;2023-03-23T17:19:53;9.20;;;2.10;;
72319;SDS011;60269;52.502;16.732;2023-03-23T17:23:25;8.70;;;2.30;;
72319;SDS011;60269;52.502;16.732;2023-03-23T17:26:58;7.77;;;2.47;;
72319;SDS011;60269;52.502;16.732;2023-03-23T17:30:30;8.77;;;2.00;;
72319;SDS011;60269;52.502;16.732;2023-03-23T17:34:02;7.78;;;2.28;;
72319;SDS011;60269;52.502;16.732;2023-03-23T17:37:34;9.55;;;2.45;;
72319;SDS011;60269;52.502;16.732;2023-03-23T17:41:08;8.03;;;2.40;;
72319;SDS011;60269;52.502;16.732;2023-03-23T17:44:42;15.30;;;2.03;;
72319;SDS011;60269;52.502;16.732;2023-03-23T17:48:14;7.65;;;2.20;;
72319;SDS011;60269;52.502;16.732;2023-03-23T17:51:48;7.20;;;2.42;;
72319;SDS011;60269;52.502;16.732;2023-03-23T17:55:20;8.43;;;2.27;;
72319;SDS011;60269;52.502;16.732;2023-03-23T17:58:53;7.13;;;1.80;;
72319;SDS011;60269;52.502;16.732;2023-03-23T18:02:25;7.32;;;1.85;;
72319;SDS011;60269;52.502;16.732;2023-03-23T18:06:02;6.57;;;1.57;;
72319;SDS011;60269;52.502;16.732;2023-03-23T18:09:36;7.70;;;1.88;;
72319;SDS011;60269;52.502;16.732;2023-03-23T18:13:08;7.25;;;1.80;;
72319;SDS011;60269;52.502;16.732;2023-03-23T18:16:41;7.83;;;1.97;;
72319;SDS011;60269;52.502;16.732;2023-03-23T18:20:13;7.77;;;1.80;;
72319;SDS011;60269;52.502;16.732;2023-03-23T18:23:45;8.15;;;2.42;;
72319;SDS011;60269;52.502;16.732;2023-03-23T18:27:30;6.75;;;1.70;;
72319;SDS011;60269;52.502;16.732;2023-03-23T18:31:08;6.97;;;2.07;;
72319;SDS011;60269;52.502;16.732;2023-03-23T18:34:42;6.93;;;1.30;;
72319;SDS011;60269;52.502;16.732;2023-03-23T18:38:14;7.45;;;1.65;;
72319;SDS011;60269;52.502;16.732;2023-03-23T18:41:47;6.22;;;2.10;;
72319;SDS011;60269;52.502;16.732;2023-03-23T18:45:19;7.73;;;1.90;;
72319;SDS011;60269;52.502;16.732;2023-03-23T18:48:51;8.02;;;2.35;;
72319;SDS011;60269;52.502;16.732;2023-03-23T18:52:23;8.38;;;2.60;;
72319;SDS011;60269;52.502;16.732;2023-03-23T18:56:07;8.15;;;2.30;;
72319;SDS011;60269;52.502;16.732;2023-03-23T18:59:41;8.80;;;2.40;;
72319;SDS011;60269;52.502;16.732;2023-03-23T19:03:14;16.88;;;2.50;;
72319;SDS011;60269;52.502;16.732;2023-03-23T19:06:48;8.23;;;2.30;;
72319;SDS011;60269;52.502;16.732;2023-03-23T19:10:21;10.97;;;2.97;;
72319;SDS011;60269;52.502;16.732;2023-03-23T19:13:53;8.80;;;2.73;;
72319;SDS011;60269;52.502;16.732;2023-03-23T19:17:34;8.20;;;2.83;;
72319;SDS011;60269;52.502;16.732;2023-03-23T19:21:06;8.75;;;2.45;;
72319;SDS011;60269;52.502;16.732;2023-03-23T19:24:47;7.00;;;2.53;;
72319;SDS011;60269;52.502;16.732;2023-03-23T19:28:20;7.50;;;2.42;;
72319;SDS011;60269;52.502;16.732;2023-03-23T19:32:12;11.20;;;3.17;;
72319;SDS011;60269;52.502;16.732;2023-03-23T19:35:49;8.23;;;2.60;;
72319;SDS011;60269;52.502;16.732;2023-03-23T19:39:39;7.53;;;2.60;;
72319;SDS011;60269;52.502;16.732;2023-03-23T19:43:13;7.95;;;2.90;;
72319;SDS011;60269;52.502;16.732;2023-03-23T19:46:45;10.82;;;2.80;;
72319;SDS011;60269;52.502;16.732;2023-03-23T19:50:19;11.10;;;2.93;;
72319;SDS011;60269;52.502;16.732;2023-03-23T19:53:51;10.77;;;2.63;;
72319;SDS011;60269;52.502;16.732;2023-03-23T19:57:23;9.57;;;2.70;;
72319;SDS011;60269;52.502;16.732;2023-03-23T20:00:58;7.88;;;2.65;;
72319;SDS011;60269;52.502;16.732;2023-03-23T20:04:31;10.27;;;3.10;;
72319;SDS011;60269;52.502;16.732;2023-03-23T20:08:03;9.73;;;3.08;;
72319;SDS011;60269;52.502;16.732;2023-03-23T20:11:35;12.00;;;2.53;;
72319;SDS011;60269;52.502;16.732;2023-03-23T20:15:08;11.65;;;3.05;;
72319;SDS011;60269;52.502;16.732;2023-03-23T20:18:42;8.53;;;2.83;;
72319;SDS011;60269;52.502;16.732;2023-03-23T20:22:16;10.88;;;2.92;;
72319;SDS011;60269;52.502;16.732;2023-03-23T20:25:49;8.07;;;2.53;;
72319;SDS011;60269;52.502;16.732;2023-03-23T20:29:22;8.17;;;2.63;;
72319;SDS011;60269;52.502;16.732;2023-03-23T20:32:57;10.55;;;2.65;;
72319;SDS011;60269;52.502;16.732;2023-03-23T20:36:33;8.77;;;2.67;;
72319;SDS011;60269;52.502;16.732;2023-03-23T20:40:10;9.65;;;3.50;;
72319;SDS011;60269;52.502;16.732;2023-03-23T20:43:46;11.13;;;3.23;;
72319;SDS011;60269;52.502;16.732;2023-03-23T20:47:18;11.32;;;3.15;;
72319;SDS011;60269;52.502;16.732;2023-03-23T20:50:50;9.68;;;3.00;;
72319;SDS011;60269;52.502;16.732;2023-03-23T20:54:22;11.77;;;3.00;;
72319;SDS011;60269;52.502;16.732;2023-03-23T20:57:55;11.00;;;2.63;;
72319;SDS011;60269;52.502;16.732;2023-03-23T21:01:27;10.60;;;2.97;;
72319;SDS011;60269;52.502;16.732;2023-03-23T21:04:59;11.80;;;3.30;;
72319;SDS011;60269;52.502;16.732;2023-03-23T21:08:36;13.67;;;3.97;;
72319;SDS011;60269;52.502;16.732;2023-03-23T21:12:10;10.18;;;3.00;;
72319;SDS011;60269;52.502;16.732;2023-03-23T21:15:42;9.60;;;3.08;;
72319;SDS011;60269;52.502;16.732;2023-03-23T21:19:15;10.17;;;2.70;;
72319;SDS011;60269;52.502;16.732;2023-03-23T21:22:48;10.07;;;2.93;;
72319;SDS011;60269;52.502;16.732;2023-03-23T21:26:24;7.55;;;2.15;;
72319;SDS011;60269;52.502;16.732;2023-03-23T21:29:59;7.60;;;2.10;;
72319;SDS011;60269;52.502;16.732;2023-03-23T21:33:34;10.83;;;2.20;;
72319;SDS011;60269;52.502;16.732;2023-03-23T21:37:06;7.10;;;1.67;;
72319;SDS011;60269;52.502;16.732;2023-03-23T21:40:41;6.40;;;1.85;;
72319;SDS011;60269;52.502;16.732;2023-03-23T21:44:14;8.25;;;2.15;;
72319;SDS011;60269;52.502;16.732;2023-03-23T21:47:49;8.77;;;2.50;;
72319;SDS011;60269;52.502;16.732;2023-03-23T21:51:28;7.25;;;2.08;;
72319;SDS011;60269;52.502;16.732;2023-03-23T21:55:00;6.35;;;1.27;;
72319;SDS011;60269;52.502;16.732;2023-03-23T21:58:33;10.30;;;2.30;;
72319;SDS011;60269;52.502;16.732;2023-03-23T22:02:10;11.68;;;2.47;;
72319;SDS011;60269;52.502;16.732;2023-03-23T22:05:44;8.55;;;2.22;;
72319;SDS011;60269;52.502;16.732;2023-03-23T22:09:16;8.60;;;2.58;;
72319;SDS011;60269;52.502;16.732;2023-03-23T22:12:49;7.87;;;2.60;;
72319;SDS011;60269;52.502;16.732;2023-03-23T22:16:25;9.23;;;2.50;;
72319;SDS011;60269;52.502;16.732;2023-03-23T22:19:58;8.77;;;2.25;;
72319;SDS011;60269;52.502;16.732;2023-03-23T22:23:30;8.60;;;2.63;;
72319;SDS011;60269;52.502;16.732;2023-03-23T22:27:02;6.90;;;1.95;;
72319;SDS011;60269;52.502;16.732;2023-03-23T22:30:35;7.93;;;2.25;;
72319;SDS011;60269;52.502;16.732;2023-03-23T22:34:07;8.27;;;1.95;;
72319;SDS011;60269;52.502;16.732;2023-03-23T22:37:39;6.67;;;1.43;;
72319;SDS011;60269;52.502;16.732;2023-03-23T22:41:18;7.28;;;1.60;;
72319;SDS011;60269;52.502;16.732;2023-03-23T22:44:52;8.77;;;2.10;;
72319;SDS011;60269;52.502;16.732;2023-03-23T22:48:25;11.87;;;2.00;;
72319;SDS011;60269;52.502;16.732;2023-03-23T22:51:57;6.32;;;1.75;;
72319;SDS011;60269;52.502;16.732;2023-03-23T22:55:29;4.90;;;1.58;;
72319;SDS011;60269;52.502;16.732;2023-03-23T22:59:03;5.57;;;1.30;;
72319;SDS011;60269;52.502;16.732;2023-03-23T23:02:41;4.87;;;1.40;;
72319;SDS011;60269;52.502;16.732;2023-03-23T23:06:14;5.97;;;1.60;;
72319;SDS011;60269;52.502;16.732;2023-03-23T23:09:48;6.32;;;1.75;;